Time;durP1;ratioP1;P1;durP2;ratioP2;P2;SDS_P1;SDS_P2;PMS_P1;PMS_P2;Temp;Humidity;BMP_temperature;BMP_pressure;BME280_temperature;BME280_humidity;BME280_pressure;Samples;Min_cycle;Max_cycle;Signal;HPM_P1;HPM_P2
2022/09/03 00:00:15;;;;;;;4.13;2.17;;;;;;;;;;4985146;28;89978;-69
2022/09/03 00:02:52;;;;;;;4.00;1.95;;;;;;;;;;4971790;28;90269;-69
2022/09/03 00:05:37;;;;;;;4.65;2.10;;;;;;;;;;4981366;28;89568;-69
2022/09/03 00:08:03;;;;;;;7.10;2.03;;;;;;;;;;4985777;28;89111;-71
2022/09/03 00:10:46;;;;;;;16.70;2.58;;;;;;;;;;4990809;28;89770;-71
2022/09/03 00:13:16;;;;;;;4.45;2.10;;;;;;;;;;4992439;28;89750;-72
2022/09/03 00:15:42;;;;;;;4.30;2.00;;;;;;;;;;4990969;28;90532;-71
2022/09/03 00:18:14;;;;;;;3.00;1.80;;;;;;;;;;4987922;28;90115;-72
2022/09/03 00:20:43;;;;;;;10.38;2.20;;;;;;;;;;4989633;28;89204;-71
2022/09/03 00:23:14;;;;;;;4.10;1.90;;;;;;;;;;4987488;28;89977;-71
2022/09/03 00:25:41;;;;;;;4.80;2.05;;;;;;;;;;4991389;28;90198;-71
2022/09/03 00:28:13;;;;;;;8.57;2.20;;;;;;;;;;4988195;28;88879;-71
2022/09/03 00:30:41;;;;;;;5.18;1.98;;;;;;;;;;4989730;28;89919;-71
2022/09/03 00:33:13;;;;;;;6.53;1.90;;;;;;;;;;4989429;28;90449;-71
2022/09/03 00:35:46;;;;;;;4.70;2.17;;;;;;;;;;4993141;28;89080;-71
2022/09/03 00:38:13;;;;;;;10.05;2.35;;;;;;;;;;4989208;28;90882;-70
2022/09/03 00:40:58;;;;;;;5.30;2.10;;;;;;;;;;4988594;28;89084;-71
2022/09/03 00:43:31;;;;;;;3.83;2.10;;;;;;;;;;4990435;28;89097;-70
2022/09/03 00:46:18;;;;;;;5.78;2.45;;;;;;;;;;4989174;28;90446;-70
2022/09/03 00:48:44;;;;;;;7.57;1.98;;;;;;;;;;4985980;28;89241;-69
2022/09/03 00:51:26;;;;;;;8.60;2.10;;;;;;;;;;4989919;28;89535;-69
2022/09/03 00:54:04;;;;;;;5.05;2.00;;;;;;;;;;4989776;28;90525;-69
2022/09/03 00:56:34;;;;;;;4.97;1.90;;;;;;;;;;4989947;28;89179;-69
2022/09/03 00:59:13;;;;;;;5.07;2.40;;;;;;;;;;4990944;28;90455;-69
2022/09/03 01:01:44;;;;;;;7.32;2.50;;;;;;;;;;4989311;28;88688;-70
2022/09/03 01:04:27;;;;;;;6.03;2.08;;;;;;;;;;4989859;28;89807;-69
2022/09/03 01:07:13;;;;;;;6.07;2.22;;;;;;;;;;4989224;28;88975;-69
2022/09/03 01:09:42;;;;;;;11.75;2.40;;;;;;;;;;4987679;28;89660;-69
2022/09/03 01:12:13;;;;;;;5.22;2.20;;;;;;;;;;4986976;28;89965;-69
2022/09/03 01:14:54;;;;;;;3.35;1.90;;;;;;;;;;4988632;28;90038;-70
2022/09/03 01:17:23;;;;;;;4.93;2.10;;;;;;;;;;4989393;28;89060;-69
2022/09/03 01:20:16;;;;;;;5.53;2.20;;;;;;;;;;4987074;28;89789;-70
2022/09/03 01:22:57;;;;;;;5.53;2.08;;;;;;;;;;4984529;28;89889;-69
2022/09/03 01:26:03;;;;;;;3.47;2.00;;;;;;;;;;4988749;28;89417;-70
2022/09/03 01:28:41;;;;;;;10.73;2.50;;;;;;;;;;4964263;28;89909;-70
2022/09/03 01:31:16;;;;;;;4.43;2.22;;;;;;;;;;4965358;28;89240;-70
2022/09/03 01:33:49;;;;;;;6.38;2.40;;;;;;;;;;4965637;28;90731;-70
2022/09/03 01:36:30;;;;;;;5.28;2.20;;;;;;;;;;4963125;28;90068;-69
2022/09/03 01:39:05;;;;;;;5.47;2.20;;;;;;;;;;4965037;28;89074;-69
2022/09/03 01:44:51;;;;;;;5.30;2.13;;;;;;;;;;4964903;28;90357;-70
2022/09/03 01:47:18;;;;;;;6.85;2.20;;;;;;;;;;4899947;28;89176;-69
2022/09/03 01:50:07;;;;;;;4.15;2.30;;;;;;;;;;4908759;28;89305;-70
2022/09/03 01:52:36;;;;;;;7.22;2.40;;;;;;;;;;4877630;28;89325;-71
2022/09/03 01:55:16;;;;;;;5.38;2.40;;;;;;;;;;4886537;28;90392;-69
2022/09/03 01:57:46;;;;;;;6.20;2.30;;;;;;;;;;4893250;28;89875;-69
2022/09/03 02:00:14;;;;;;;5.15;2.30;;;;;;;;;;4908346;28;89142;-70
2022/09/03 02:02:43;;;;;;;4.28;2.22;;;;;;;;;;4906768;28;89219;-69
2022/09/03 02:05:21;;;;;;;6.03;2.20;;;;;;;;;;4907469;28;90221;-69
2022/09/03 02:07:51;;;;;;;5.22;2.08;;;;;;;;;;4909955;28;88531;-70
2022/09/03 02:10:19;;;;;;;6.45;2.08;;;;;;;;;;4906366;28;90845;-69
2022/09/03 02:13:06;;;;;;;4.90;2.20;;;;;;;;;;4909422;28;89434;-69
2022/09/03 02:15:35;;;;;;;3.70;1.98;;;;;;;;;;4909102;28;89938;-70
2022/09/03 02:18:03;;;;;;;4.35;2.00;;;;;;;;;;4911734;28;90017;-69
2022/09/03 02:20:29;;;;;;;2.92;1.77;;;;;;;;;;4906406;28;88877;-69
2022/09/03 02:22:57;;;;;;;5.32;2.05;;;;;;;;;;4943412;28;90001;-70
2022/09/03 02:25:25;;;;;;;3.92;2.20;;;;;;;;;;4987290;28;89962;-70
2022/09/03 02:27:52;;;;;;;5.38;2.00;;;;;;;;;;4988323;28;89418;-71
2022/09/03 02:30:18;;;;;;;6.63;2.28;;;;;;;;;;4987368;28;89841;-71
2022/09/03 02:32:46;;;;;;;4.22;2.10;;;;;;;;;;4988689;28;89363;-69
2022/09/03 02:35:12;;;;;;;5.55;2.22;;;;;;;;;;4988252;28;89587;-69
2022/09/03 02:37:39;;;;;;;5.10;2.17;;;;;;;;;;4986153;28;89930;-69
2022/09/03 02:40:08;;;;;;;4.55;2.05;;;;;;;;;;4987926;28;89400;-70
2022/09/03 02:42:35;;;;;;;3.30;2.15;;;;;;;;;;4988639;28;89589;-69
2022/09/03 02:45:20;;;;;;;4.32;2.30;;;;;;;;;;4987838;28;90194;-69
2022/09/03 02:47:49;;;;;;;6.22;1.98;;;;;;;;;;4986264;28;89145;-70
2022/09/03 02:50:16;;;;;;;4.05;2.05;;;;;;;;;;4985430;28;90461;-69
2022/09/03 02:52:42;;;;;;;3.50;2.00;;;;;;;;;;4990703;28;90384;-69
2022/09/03 02:55:08;;;;;;;7.07;2.10;;;;;;;;;;4987282;28;89641;-69
2022/09/03 02:57:35;;;;;;;4.93;2.10;;;;;;;;;;4987583;28;90463;-69
2022/09/03 03:00:02;;;;;;;4.03;2.10;;;;;;;;;;4987057;28;89518;-69
2022/09/03 03:02:28;;;;;;;10.15;2.20;;;;;;;;;;4987916;28;89596;-69
2022/09/03 03:04:55;;;;;;;3.45;2.30;;;;;;;;;;4988017;28;89774;-71
2022/09/03 03:07:21;;;;;;;5.75;2.45;;;;;;;;;;4984530;28;90209;-71
2022/09/03 03:09:47;;;;;;;5.88;2.13;;;;;;;;;;4987090;28;89839;-71
2022/09/03 03:12:16;;;;;;;7.25;2.10;;;;;;;;;;4987759;28;90722;-70
2022/09/03 03:14:42;;;;;;;5.28;2.00;;;;;;;;;;4991163;28;89196;-70
2022/09/03 03:17:08;;;;;;;4.88;2.35;;;;;;;;;;4985576;28;90038;-69
2022/09/03 03:19:35;;;;;;;4.03;2.13;;;;;;;;;;4986333;28;89589;-70
2022/09/03 03:22:01;;;;;;;2.67;1.80;;;;;;;;;;4986034;28;89744;-69
2022/09/03 03:24:27;;;;;;;3.35;2.00;;;;;;;;;;4987750;28;90680;-70
2022/09/03 03:26:56;;;;;;;4.13;1.90;;;;;;;;;;4986483;28;89078;-70
2022/09/03 03:29:24;;;;;;;5.53;2.03;;;;;;;;;;4987278;28;89913;-70
2022/09/03 03:31:50;;;;;;;8.38;2.78;;;;;;;;;;4984898;28;90084;-70
2022/09/03 03:34:16;;;;;;;4.93;2.10;;;;;;;;;;4987237;28;89398;-70
2022/09/03 03:36:43;;;;;;;10.10;2.30;;;;;;;;;;4990254;28;90133;-69
2022/09/03 03:39:09;;;;;;;6.22;1.95;;;;;;;;;;4985643;28;89021;-70
2022/09/03 03:41:37;;;;;;;6.40;2.00;;;;;;;;;;4986926;28;89806;-69
2022/09/03 03:44:04;;;;;;;3.97;2.15;;;;;;;;;;4990623;28;89143;-69
2022/09/03 03:46:32;;;;;;;6.03;2.35;;;;;;;;;;4991024;28;89658;-69
2022/09/03 03:48:59;;;;;;;3.55;2.20;;;;;;;;;;4988916;28;89716;-70
2022/09/03 03:51:25;;;;;;;3.65;2.15;;;;;;;;;;4990317;28;91224;-69
2022/09/03 03:53:55;;;;;;;4.43;2.05;;;;;;;;;;4991171;28;89448;-69
2022/09/03 03:56:22;;;;;;;6.22;2.50;;;;;;;;;;4990193;28;89191;-69
2022/09/03 03:58:49;;;;;;;4.50;1.98;;;;;;;;;;4992989;28;90054;-70
2022/09/03 04:01:17;;;;;;;4.28;2.08;;;;;;;;;;4990747;28;89867;-70
2022/09/03 04:03:44;;;;;;;3.80;2.08;;;;;;;;;;4988442;28;90320;-70
2022/09/03 04:06:12;;;;;;;2.95;1.85;;;;;;;;;;4988650;28;88032;-70
2022/09/03 04:08:40;;;;;;;4.05;2.33;;;;;;;;;;4988311;28;90415;-70
2022/09/03 04:11:08;;;;;;;5.88;2.10;;;;;;;;;;4990057;28;90202;-69
2022/09/03 04:13:36;;;;;;;5.15;2.15;;;;;;;;;;4988784;28;89116;-70
2022/09/03 04:16:06;;;;;;;8.80;2.92;;;;;;;;;;4990803;28;89836;-70
2022/09/03 04:18:34;;;;;;;10.57;4.20;;;;;;;;;;4992235;28;89469;-70
2022/09/03 04:21:03;;;;;;;18.10;7.28;;;;;;;;;;4989288;28;89643;-70
2022/09/03 04:23:33;;;;;;;24.38;8.68;;;;;;;;;;4991047;28;90632;-69
2022/09/03 04:26:00;;;;;;;26.45;9.63;;;;;;;;;;4987918;28;89716;-70
2022/09/03 04:28:26;;;;;;;32.75;11.18;;;;;;;;;;4989798;28;90723;-70
2022/09/03 04:30:53;;;;;;;35.03;12.40;;;;;;;;;;4989144;28;90373;-69
2022/09/03 04:33:20;;;;;;;30.55;12.50;;;;;;;;;;4987369;28;91177;-70
2022/09/03 04:35:46;;;;;;;26.25;10.95;;;;;;;;;;4989343;28;90705;-70
2022/09/03 04:38:12;;;;;;;23.88;9.10;;;;;;;;;;4987749;28;89934;-69
2022/09/03 04:40:39;;;;;;;15.63;6.78;;;;;;;;;;4993665;28;91662;-69
2022/09/03 04:43:05;;;;;;;11.82;5.53;;;;;;;;;;4990153;28;89325;-69
2022/09/03 04:45:31;;;;;;;28.35;5.53;;;;;;;;;;4990013;28;89477;-69
2022/09/03 04:47:59;;;;;;;9.05;4.43;;;;;;;;;;4988255;28;90126;-71
2022/09/03 04:50:26;;;;;;;6.78;3.28;;;;;;;;;;4988983;28;91101;-71
2022/09/03 04:53:03;;;;;;;6.35;3.05;;;;;;;;;;4987086;28;88928;-69
2022/09/03 04:55:34;;;;;;;7.55;3.30;;;;;;;;;;4989648;28;90020;-70
2022/09/03 20:10:39;;;;;;;10.55;6.10;;;;;;;;;;4975160;28;88239;-70
2022/09/03 20:13:08;;;;;;;12.55;6.20;;;;;;;;;;4991283;28;88821;-70
2022/09/03 20:15:54;;;;;;;16.90;7.03;;;;;;;;;;4993597;28;87180;-70
2022/09/03 20:18:21;;;;;;;10.45;7.20;;;;;;;;;;5001051;28;90497;-70
2022/09/03 20:20:55;;;;;;;12.75;6.97;;;;;;;;;;4996980;28;89346;-70
2022/09/03 20:23:38;;;;;;;15.32;7.70;;;;;;;;;;4990761;28;88387;-70
2022/09/03 20:26:19;;;;;;;19.88;7.80;;;;;;;;;;4990129;28;88385;-70
2022/09/03 20:29:04;;;;;;;15.13;6.75;;;;;;;;;;4990248;28;89046;-70
2022/09/03 20:31:34;;;;;;;15.75;6.38;;;;;;;;;;4993893;28;88094;-70
2022/09/03 20:34:05;;;;;;;11.60;6.40;;;;;;;;;;4970100;28;89986;-70
2022/09/03 20:36:42;;;;;;;17.50;6.45;;;;;;;;;;4977066;28;88217;-70
2022/09/03 20:39:29;;;;;;;13.00;6.55;;;;;;;;;;4994954;28;88558;-70
2022/09/03 20:42:11;;;;;;;16.58;7.18;;;;;;;;;;4987547;28;89124;-70
2022/09/03 20:44:52;;;;;;;16.05;7.20;;;;;;;;;;4991368;28;88415;-70
2022/09/03 20:47:34;;;;;;;17.08;6.70;;;;;;;;;;4989149;28;87434;-70
2022/09/03 20:50:02;;;;;;;24.42;6.97;;;;;;;;;;4988081;28;87969;-70
2022/09/03 20:52:36;;;;;;;14.15;6.60;;;;;;;;;;4986073;28;88848;-71
2022/09/03 20:55:06;;;;;;;11.02;6.57;;;;;;;;;;4992842;28;88334;-68
2022/09/03 20:57:33;;;;;;;12.45;6.03;;;;;;;;;;4989437;28;88890;-71
2022/09/03 20:59:59;;;;;;;11.60;6.30;;;;;;;;;;4989403;28;88863;-71
2022/09/03 21:02:36;;;;;;;9.38;5.70;;;;;;;;;;4992076;28;88808;-71
2022/09/03 21:05:08;;;;;;;13.10;7.13;;;;;;;;;;4989579;28;88449;-71
2022/09/03 21:07:37;;;;;;;11.75;7.40;;;;;;;;;;4997376;28;88785;-71
2022/09/03 21:10:05;;;;;;;15.70;6.60;;;;;;;;;;4995588;28;89202;-71
2022/09/03 21:12:34;;;;;;;16.80;6.97;;;;;;;;;;4988731;28;88281;-72
2022/09/03 21:15:01;;;;;;;12.32;7.18;;;;;;;;;;4987879;28;88476;-70
2022/09/03 21:17:32;;;;;;;19.90;6.75;;;;;;;;;;5009854;28;87890;-70
2022/09/03 21:20:10;;;;;;;14.68;6.47;;;;;;;;;;4988630;28;88305;-70
2022/09/03 21:22:51;;;;;;;9.93;6.20;;;;;;;;;;4987226;28;89074;-71
2022/09/03 21:25:26;;;;;;;15.80;6.23;;;;;;;;;;4987782;28;88426;-71
2022/09/03 21:27:55;;;;;;;11.77;6.05;;;;;;;;;;4989177;28;88738;-71
2022/09/03 21:30:21;;;;;;;11.60;6.35;;;;;;;;;;4989053;28;89291;-71
2022/09/03 21:33:06;;;;;;;16.15;6.30;;;;;;;;;;4990296;28;88229;-71
2022/09/03 21:35:34;;;;;;;12.68;5.95;;;;;;;;;;4986469;28;88432;-71
2022/09/03 21:38:04;;;;;;;15.60;7.30;;;;;;;;;;4995634;28;88973;-71
2022/09/03 21:40:30;;;;;;;11.65;6.85;;;;;;;;;;5009857;28;88604;-71
2022/09/03 21:43:06;;;;;;;13.15;7.10;;;;;;;;;;4991586;28;89438;-71
2022/09/03 21:45:35;;;;;;;13.98;6.28;;;;;;;;;;4991410;28;88101;-70
2022/09/03 21:48:04;;;;;;;11.57;6.15;;;;;;;;;;5009590;28;88761;-71
2022/09/03 21:50:44;;;;;;;10.10;6.85;;;;;;;;;;4988309;28;89190;-71
2022/09/03 21:53:16;;;;;;;15.32;7.57;;;;;;;;;;4989966;28;88525;-70
2022/09/03 21:55:52;;;;;;;11.25;7.35;;;;;;;;;;4988737;28;88788;-70
2022/09/03 21:58:25;;;;;;;20.52;8.30;;;;;;;;;;4993680;28;89063;-69
2022/09/03 22:00:55;;;;;;;13.77;7.28;;;;;;;;;;4990097;28;89634;-69
2022/09/03 22:03:21;;;;;;;17.23;7.18;;;;;;;;;;4996597;28;89193;-69
2022/09/03 22:05:51;;;;;;;17.35;6.93;;;;;;;;;;4989556;28;88350;-69
2022/09/03 22:08:32;;;;;;;15.40;7.30;;;;;;;;;;4988483;28;89360;-68
2022/09/03 22:11:04;;;;;;;13.82;6.70;;;;;;;;;;4988271;28;87742;-69
2022/09/03 22:13:37;;;;;;;24.27;7.03;;;;;;;;;;4986633;28;88778;-69
2022/09/03 22:16:12;;;;;;;11.07;6.55;;;;;;;;;;4988824;28;88915;-69
2022/09/03 22:18:38;;;;;;;13.82;6.70;;;;;;;;;;4987887;28;89090;-69
2022/09/03 22:21:10;;;;;;;15.43;6.38;;;;;;;;;;4987861;28;88162;-69
2022/09/03 22:23:42;;;;;;;14.52;7.18;;;;;;;;;;4992084;28;88395;-69
2022/09/03 22:26:20;;;;;;;9.32;6.22;;;;;;;;;;4986493;28;88714;-69
2022/09/03 22:29:01;;;;;;;14.35;7.18;;;;;;;;;;4986656;28;88581;-70
2022/09/03 22:31:27;;;;;;;12.33;6.97;;;;;;;;;;4987665;28;89007;-69
2022/09/03 22:33:57;;;;;;;15.20;7.57;;;;;;;;;;4988388;28;88674;-69
2022/09/03 22:36:29;;;;;;;12.95;7.22;;;;;;;;;;4997031;28;88951;-69
2022/09/03 22:39:15;;;;;;;12.70;7.05;;;;;;;;;;4983113;28;89251;-69
2022/09/03 22:42:00;;;;;;;13.27;7.72;;;;;;;;;;4971832;28;89052;-69
2022/09/03 22:44:43;;;;;;;9.60;7.45;;;;;;;;;;5008924;28;88053;-69
2022/09/03 22:47:16;;;;;;;17.05;8.10;;;;;;;;;;5003834;28;89039;-69
2022/09/03 22:49:43;;;;;;;12.52;7.97;;;;;;;;;;4985980;28;88749;-69
2022/09/03 22:52:09;;;;;;;12.57;8.23;;;;;;;;;;4987877;28;89062;-69
2022/09/03 22:54:40;;;;;;;15.70;8.75;;;;;;;;;;4989015;28;88603;-71
2022/09/03 22:57:08;;;;;;;14.67;8.90;;;;;;;;;;4987645;28;88467;-69
2022/09/03 22:59:43;;;;;;;20.13;8.57;;;;;;;;;;4988715;28;89315;-69
2022/09/03 23:02:11;;;;;;;13.23;7.82;;;;;;;;;;4987188;28;88407;-69
2022/09/03 23:04:44;;;;;;;17.38;8.40;;;;;;;;;;4986711;28;88666;-69
2022/09/03 23:07:17;;;;;;;15.48;7.90;;;;;;;;;;4987954;28;89030;-69
2022/09/03 23:09:49;;;;;;;19.30;7.97;;;;;;;;;;4990509;28;88480;-69
2022/09/03 23:12:18;;;;;;;;;;;;;;;;;;4989252;28;89044;-69
2022/09/03 23:14:50;;;;;;;16.83;8.45;;;;;;;;;;4998734;28;117933;-69
2022/09/03 23:17:24;;;;;;;11.77;8.25;;;;;;;;;;4984920;28;89980;-69
2022/09/03 23:19:57;;;;;;;15.27;8.82;;;;;;;;;;4985809;28;88805;-69
2022/09/03 23:22:28;;;;;;;16.40;9.40;;;;;;;;;;4968204;28;88646;-69
2022/09/03 23:25:04;;;;;;;15.70;9.20;;;;;;;;;;4977174;28;89951;-69
2022/09/03 23:27:35;;;;;;;16.48;10.38;;;;;;;;;;4984672;28;88913;-69
2022/09/03 23:30:02;;;;;;;19.87;10.97;;;;;;;;;;4980735;28;89454;-69
2022/09/03 23:32:28;;;;;;;22.90;10.27;;;;;;;;;;4985497;28;91236;-69
2022/09/03 23:34:59;;;;;;;18.30;10.52;;;;;;;;;;4986223;28;90566;-69
2022/09/03 23:37:40;;;;;;;18.92;10.88;;;;;;;;;;4986224;28;89997;-69
2022/09/03 23:40:25;;;;;;;13.70;10.18;;;;;;;;;;4988742;28;91262;-69
2022/09/03 23:43:08;;;;;;;19.92;9.95;;;;;;;;;;4977157;28;91572;-69
2022/09/03 23:45:34;;;;;;;13.88;9.70;;;;;;;;;;5000115;28;89261;-69
2022/09/03 23:48:21;;;;;;;13.95;10.10;;;;;;;;;;5010659;28;89000;-69
2022/09/03 23:50:53;;;;;;;16.20;10.70;;;;;;;;;;4986090;28;90681;-69
2022/09/03 23:53:29;;;;;;;32.22;11.20;;;;;;;;;;4988512;28;90789;-69
2022/09/03 23:56:12;;;;;;;19.77;11.48;;;;;;;;;;4997268;28;90713;-70
2022/09/03 23:58:39;;;;;;;15.77;11.20;;;;;;;;;;4986971;28;90234;-70
